Cross Plains, Texas
Current Conditions -  °F | °C
As of 3:35 PM on Friday 28 Nov 2014 (Local Time) from KCOM Reporting Station
Clear Clear  
Wind Chill: 71°   Ceiling: Unl
Heat Index: 71°   Visibility: 10mi
Dew Point: 45°   Wind: 17mph
Humidity: 39%   Direction: 210°SSW
Pressure: 30.05"   Gusts: 22mph
Location:  32.13°N, 99.17°W
Report Text: KCOM 282135Z AUTO 21015G19KT 10SM CLR 22/07 A3005 RMK AO2 T02180073
Loading
Personal Weather Stations






























Interactive Weather Map New forecast layout! Learn more

10-Day Weather Forecast

Advertisements
Track Severe Weather on mobile